sensor_id;sensor_type;location;lat;lon;timestamp;P1;durP1;ratioP1;P2;durP2;ratioP2
71771;SDS011;59606;52.138;5.424;2024-02-28T00:00:05;31.98;;;12.60;;
71771;SDS011;59606;52.138;5.424;2024-02-28T00:02:32;34.53;;;12.10;;
71771;SDS011;59606;52.138;5.424;2024-02-28T00:04:58;32.22;;;12.05;;
71771;SDS011;59606;52.138;5.424;2024-02-28T00:07:25;29.33;;;12.00;;
71771;SDS011;59606;52.138;5.424;2024-02-28T00:09:51;35.38;;;12.73;;
71771;SDS011;59606;52.138;5.424;2024-02-28T00:12:18;33.75;;;12.43;;
71771;SDS011;59606;52.138;5.424;2024-02-28T00:14:45;33.95;;;11.23;;
71771;SDS011;59606;52.138;5.424;2024-02-28T00:17:11;32.20;;;13.10;;
71771;SDS011;59606;52.138;5.424;2024-02-28T00:19:39;31.00;;;12.27;;
71771;SDS011;59606;52.138;5.424;2024-02-28T00:22:06;32.25;;;12.73;;
71771;SDS011;59606;52.138;5.424;2024-02-28T00:24:32;34.47;;;12.93;;
71771;SDS011;59606;52.138;5.424;2024-02-28T00:26:59;40.67;;;15.18;;
71771;SDS011;59606;52.138;5.424;2024-02-28T00:29:25;39.28;;;13.85;;
71771;SDS011;59606;52.138;5.424;2024-02-28T00:31:52;35.60;;;13.33;;
71771;SDS011;59606;52.138;5.424;2024-02-28T00:34:19;40.92;;;14.00;;
71771;SDS011;59606;52.138;5.424;2024-02-28T00:36:45;42.45;;;14.70;;
71771;SDS011;59606;52.138;5.424;2024-02-28T00:39:21;33.88;;;13.00;;
71771;SDS011;59606;52.138;5.424;2024-02-28T00:41:48;33.13;;;13.02;;
71771;SDS011;59606;52.138;5.424;2024-02-28T00:44:15;32.53;;;12.60;;
71771;SDS011;59606;52.138;5.424;2024-02-28T00:46:41;33.78;;;14.32;;
71771;SDS011;59606;52.138;5.424;2024-02-28T00:49:08;31.75;;;12.43;;
71771;SDS011;59606;52.138;5.424;2024-02-28T00:51:34;31.95;;;12.77;;
71771;SDS011;59606;52.138;5.424;2024-02-28T00:54:03;37.13;;;12.93;;
71771;SDS011;59606;52.138;5.424;2024-02-28T00:56:30;37.70;;;12.87;;
71771;SDS011;59606;52.138;5.424;2024-02-28T00:58:57;42.50;;;14.30;;
71771;SDS011;59606;52.138;5.424;2024-02-28T01:01:23;40.50;;;13.57;;
71771;SDS011;59606;52.138;5.424;2024-02-28T01:03:50;35.15;;;13.75;;
71771;SDS011;59606;52.138;5.424;2024-02-28T01:06:16;37.97;;;13.00;;
71771;SDS011;59606;52.138;5.424;2024-02-28T01:08:43;28.77;;;12.30;;
71771;SDS011;59606;52.138;5.424;2024-02-28T01:11:10;39.00;;;14.55;;
71771;SDS011;59606;52.138;5.424;2024-02-28T01:13:37;39.60;;;14.27;;
71771;SDS011;59606;52.138;5.424;2024-02-28T01:16:03;35.90;;;12.75;;
71771;SDS011;59606;52.138;5.424;2024-02-28T01:18:30;36.95;;;13.60;;
71771;SDS011;59606;52.138;5.424;2024-02-28T01:21:00;34.87;;;13.03;;
71771;SDS011;59606;52.138;5.424;2024-02-28T01:23:26;35.63;;;12.05;;
71771;SDS011;59606;52.138;5.424;2024-02-28T01:25:53;35.22;;;12.95;;
71771;SDS011;59606;52.138;5.424;2024-02-28T01:28:19;31.30;;;12.60;;
71771;SDS011;59606;52.138;5.424;2024-02-28T01:30:46;35.20;;;12.88;;
71771;SDS011;59606;52.138;5.424;2024-02-28T01:33:12;34.60;;;13.07;;
71771;SDS011;59606;52.138;5.424;2024-02-28T01:35:42;34.38;;;13.20;;
71771;SDS011;59606;52.138;5.424;2024-02-28T01:38:11;35.42;;;12.35;;
71771;SDS011;59606;52.138;5.424;2024-02-28T01:40:38;34.97;;;12.80;;
71771;SDS011;59606;52.138;5.424;2024-02-28T01:43:08;44.60;;;13.20;;
71771;SDS011;59606;52.138;5.424;2024-02-28T01:45:34;40.53;;;13.60;;
71771;SDS011;59606;52.138;5.424;2024-02-28T01:48:02;40.00;;;13.65;;
71771;SDS011;59606;52.138;5.424;2024-02-28T01:50:29;38.90;;;14.68;;
71771;SDS011;59606;52.138;5.424;2024-02-28T01:52:55;93.28;;;15.52;;
71771;SDS011;59606;52.138;5.424;2024-02-28T01:55:22;55.55;;;14.73;;
71771;SDS011;59606;52.138;5.424;2024-02-28T01:57:48;54.60;;;13.27;;
71771;SDS011;59606;52.138;5.424;2024-02-28T02:00:15;84.45;;;15.32;;
71771;SDS011;59606;52.138;5.424;2024-02-28T02:02:44;95.30;;;13.80;;
71771;SDS011;59606;52.138;5.424;2024-02-28T02:05:10;142.45;;;13.80;;
71771;SDS011;59606;52.138;5.424;2024-02-28T02:07:37;55.55;;;11.40;;
71771;SDS011;59606;52.138;5.424;2024-02-28T02:10:05;44.07;;;12.60;;
71771;SDS011;59606;52.138;5.424;2024-02-28T02:12:35;48.00;;;11.13;;
71771;SDS011;59606;52.138;5.424;2024-02-28T02:15:02;61.83;;;12.07;;
71771;SDS011;59606;52.138;5.424;2024-02-28T02:17:31;34.47;;;11.27;;
71771;SDS011;59606;52.138;5.424;2024-02-28T02:19:57;54.40;;;11.65;;
71771;SDS011;59606;52.138;5.424;2024-02-28T02:22:25;38.50;;;11.23;;
71771;SDS011;59606;52.138;5.424;2024-02-28T02:24:55;27.88;;;10.63;;
71771;SDS011;59606;52.138;5.424;2024-02-28T02:27:23;53.47;;;11.13;;
71771;SDS011;59606;52.138;5.424;2024-02-28T02:29:51;45.50;;;10.95;;
71771;SDS011;59606;52.138;5.424;2024-02-28T02:32:17;34.45;;;11.25;;
71771;SDS011;59606;52.138;5.424;2024-02-28T02:34:44;39.50;;;11.50;;
71771;SDS011;59606;52.138;5.424;2024-02-28T02:37:12;30.45;;;10.55;;
71771;SDS011;59606;52.138;5.424;2024-02-28T02:39:38;28.15;;;9.70;;
71771;SDS011;59606;52.138;5.424;2024-02-28T02:42:05;24.98;;;10.68;;
71771;SDS011;59606;52.138;5.424;2024-02-28T02:44:33;23.13;;;9.57;;
71771;SDS011;59606;52.138;5.424;2024-02-28T02:47:00;25.07;;;10.13;;
71771;SDS011;59606;52.138;5.424;2024-02-28T02:49:26;26.02;;;10.27;;
71771;SDS011;59606;52.138;5.424;2024-02-28T02:51:53;25.83;;;10.38;;
71771;SDS011;59606;52.138;5.424;2024-02-28T02:54:19;41.42;;;11.48;;
71771;SDS011;59606;52.138;5.424;2024-02-28T02:56:46;23.20;;;10.18;;
71771;SDS011;59606;52.138;5.424;2024-02-28T02:59:13;23.53;;;9.97;;
71771;SDS011;59606;52.138;5.424;2024-02-28T03:01:39;26.02;;;11.00;;
71771;SDS011;59606;52.138;5.424;2024-02-28T03:04:06;23.63;;;10.18;;
71771;SDS011;59606;52.138;5.424;2024-02-28T03:06:33;27.60;;;10.02;;
71771;SDS011;59606;52.138;5.424;2024-02-28T03:09:00;27.02;;;10.38;;
71771;SDS011;59606;52.138;5.424;2024-02-28T03:11:26;44.60;;;10.47;;
71771;SDS011;59606;52.138;5.424;2024-02-28T03:13:53;28.80;;;10.80;;
71771;SDS011;59606;52.138;5.424;2024-02-28T03:16:20;27.20;;;11.50;;
71771;SDS011;59606;52.138;5.424;2024-02-28T03:18:46;21.88;;;9.85;;
71771;SDS011;59606;52.138;5.424;2024-02-28T03:21:13;24.40;;;10.00;;
71771;SDS011;59606;52.138;5.424;2024-02-28T03:23:40;30.90;;;11.53;;
71771;SDS011;59606;52.138;5.424;2024-02-28T03:26:06;32.70;;;11.55;;
71771;SDS011;59606;52.138;5.424;2024-02-28T03:28:33;27.90;;;11.27;;
71771;SDS011;59606;52.138;5.424;2024-02-28T03:30:59;24.90;;;10.63;;
71771;SDS011;59606;52.138;5.424;2024-02-28T03:33:26;24.88;;;10.68;;
71771;SDS011;59606;52.138;5.424;2024-02-28T03:35:53;25.70;;;10.63;;
71771;SDS011;59606;52.138;5.424;2024-02-28T03:38:19;25.50;;;10.98;;
71771;SDS011;59606;52.138;5.424;2024-02-28T03:40:46;25.88;;;10.68;;
71771;SDS011;59606;52.138;5.424;2024-02-28T03:43:13;25.30;;;10.43;;
71771;SDS011;59606;52.138;5.424;2024-02-28T03:45:40;22.42;;;9.63;;
71771;SDS011;59606;52.138;5.424;2024-02-28T03:48:07;25.23;;;10.97;;
71771;SDS011;59606;52.138;5.424;2024-02-28T03:50:34;25.20;;;10.60;;
71771;SDS011;59606;52.138;5.424;2024-02-28T03:53:00;28.35;;;11.07;;
71771;SDS011;59606;52.138;5.424;2024-02-28T03:55:26;22.90;;;10.73;;
71771;SDS011;59606;52.138;5.424;2024-02-28T03:57:53;26.92;;;10.20;;
71771;SDS011;59606;52.138;5.424;2024-02-28T04:00:20;23.20;;;10.20;;
71771;SDS011;59606;52.138;5.424;2024-02-28T04:02:46;23.15;;;11.25;;
71771;SDS011;59606;52.138;5.424;2024-02-28T04:05:13;23.80;;;10.00;;
71771;SDS011;59606;52.138;5.424;2024-02-28T04:07:40;20.90;;;9.82;;
71771;SDS011;59606;52.138;5.424;2024-02-28T04:10:07;22.95;;;9.40;;
71771;SDS011;59606;52.138;5.424;2024-02-28T04:12:34;24.13;;;10.53;;
71771;SDS011;59606;52.138;5.424;2024-02-28T04:15:00;19.45;;;9.50;;
71771;SDS011;59606;52.138;5.424;2024-02-28T04:17:27;27.40;;;10.45;;
71771;SDS011;59606;52.138;5.424;2024-02-28T04:19:54;20.35;;;10.43;;
71771;SDS011;59606;52.138;5.424;2024-02-28T04:22:20;22.67;;;10.40;;
71771;SDS011;59606;52.138;5.424;2024-02-28T04:24:47;21.47;;;8.77;;
71771;SDS011;59606;52.138;5.424;2024-02-28T04:27:13;22.65;;;9.93;;
71771;SDS011;59606;52.138;5.424;2024-02-28T04:29:40;21.00;;;9.98;;
71771;SDS011;59606;52.138;5.424;2024-02-28T04:32:06;18.98;;;8.77;;
71771;SDS011;59606;52.138;5.424;2024-02-28T04:34:33;21.70;;;11.25;;
71771;SDS011;59606;52.138;5.424;2024-02-28T04:37:00;19.97;;;9.47;;
71771;SDS011;59606;52.138;5.424;2024-02-28T04:39:26;24.10;;;10.43;;
71771;SDS011;59606;52.138;5.424;2024-02-28T04:41:53;21.35;;;9.05;;
71771;SDS011;59606;52.138;5.424;2024-02-28T04:44:19;22.33;;;9.18;;
71771;SDS011;59606;52.138;5.424;2024-02-28T04:46:46;21.98;;;9.20;;
71771;SDS011;59606;52.138;5.424;2024-02-28T04:49:12;18.40;;;9.20;;
71771;SDS011;59606;52.138;5.424;2024-02-28T04:51:39;21.27;;;9.15;;
71771;SDS011;59606;52.138;5.424;2024-02-28T04:54:06;21.33;;;9.88;;
71771;SDS011;59606;52.138;5.424;2024-02-28T04:56:32;18.92;;;9.35;;
71771;SDS011;59606;52.138;5.424;2024-02-28T04:58:59;20.65;;;10.23;;
71771;SDS011;59606;52.138;5.424;2024-02-28T05:01:25;22.47;;;9.87;;
71771;SDS011;59606;52.138;5.424;2024-02-28T05:03:54;21.38;;;9.95;;
71771;SDS011;59606;52.138;5.424;2024-02-28T05:06:21;20.92;;;9.60;;
71771;SDS011;59606;52.138;5.424;2024-02-28T05:08:48;23.25;;;9.10;;
71771;SDS011;59606;52.138;5.424;2024-02-28T05:11:15;20.77;;;9.15;;
71771;SDS011;59606;52.138;5.424;2024-02-28T05:13:42;22.07;;;10.57;;
71771;SDS011;59606;52.138;5.424;2024-02-28T05:16:18;20.67;;;9.95;;
71771;SDS011;59606;52.138;5.424;2024-02-28T05:18:45;21.25;;;10.07;;
71771;SDS011;59606;52.138;5.424;2024-02-28T05:21:12;23.90;;;9.95;;
71771;SDS011;59606;52.138;5.424;2024-02-28T05:23:39;22.88;;;10.48;;
71771;SDS011;59606;52.138;5.424;2024-02-28T05:26:06;20.63;;;9.77;;
71771;SDS011;59606;52.138;5.424;2024-02-28T05:28:33;18.80;;;8.63;;
71771;SDS011;59606;52.138;5.424;2024-02-28T05:31:19;19.90;;;9.75;;
71771;SDS011;59606;52.138;5.424;2024-02-28T05:33:51;21.00;;;9.90;;
71771;SDS011;59606;52.138;5.424;2024-02-28T05:36:18;22.48;;;9.55;;
71771;SDS011;59606;52.138;5.424;2024-02-28T05:38:48;20.93;;;10.00;;
71771;SDS011;59606;52.138;5.424;2024-02-28T05:41:18;19.65;;;9.77;;
71771;SDS011;59606;52.138;5.424;2024-02-28T05:43:46;20.35;;;9.43;;
71771;SDS011;59606;52.138;5.424;2024-02-28T05:46:13;18.05;;;9.48;;
71771;SDS011;59606;52.138;5.424;2024-02-28T05:48:41;21.02;;;9.52;;
71771;SDS011;59606;52.138;5.424;2024-02-28T05:51:10;21.40;;;9.77;;
71771;SDS011;59606;52.138;5.424;2024-02-28T05:53:39;18.77;;;9.93;;
71771;SDS011;59606;52.138;5.424;2024-02-28T05:56:07;21.42;;;9.85;;
71771;SDS011;59606;52.138;5.424;2024-02-28T05:58:40;20.40;;;9.55;;
71771;SDS011;59606;52.138;5.424;2024-02-28T06:01:08;23.88;;;9.65;;
71771;SDS011;59606;52.138;5.424;2024-02-28T06:03:38;22.13;;;9.87;;
71771;SDS011;59606;52.138;5.424;2024-02-28T06:06:05;21.85;;;9.52;;
71771;SDS011;59606;52.138;5.424;2024-02-28T06:08:32;20.13;;;9.27;;
71771;SDS011;59606;52.138;5.424;2024-02-28T06:11:02;21.05;;;10.00;;
71771;SDS011;59606;52.138;5.424;2024-02-28T06:13:29;18.67;;;9.07;;
71771;SDS011;59606;52.138;5.424;2024-02-28T06:15:56;21.73;;;9.97;;
71771;SDS011;59606;52.138;5.424;2024-02-28T06:18:31;20.95;;;9.57;;
71771;SDS011;59606;52.138;5.424;2024-02-28T06:21:00;22.42;;;9.43;;
71771;SDS011;59606;52.138;5.424;2024-02-28T06:23:37;20.00;;;9.82;;
71771;SDS011;59606;52.138;5.424;2024-02-28T06:26:38;18.25;;;9.70;;
71771;SDS011;59606;52.138;5.424;2024-02-28T06:29:04;21.70;;;11.43;;
71771;SDS011;59606;52.138;5.424;2024-02-28T06:31:32;18.23;;;9.30;;
71771;SDS011;59606;52.138;5.424;2024-02-28T06:33:59;19.27;;;9.48;;
71771;SDS011;59606;52.138;5.424;2024-02-28T06:36:26;22.77;;;10.13;;
71771;SDS011;59606;52.138;5.424;2024-02-28T06:38:52;20.00;;;10.23;;
71771;SDS011;59606;52.138;5.424;2024-02-28T06:41:19;19.83;;;10.60;;
71771;SDS011;59606;52.138;5.424;2024-02-28T06:43:46;19.98;;;10.00;;
71771;SDS011;59606;52.138;5.424;2024-02-28T06:46:12;22.25;;;10.90;;
71771;SDS011;59606;52.138;5.424;2024-02-28T06:48:39;21.35;;;10.35;;
71771;SDS011;59606;52.138;5.424;2024-02-28T06:51:06;24.58;;;11.10;;
71771;SDS011;59606;52.138;5.424;2024-02-28T06:53:35;20.30;;;10.30;;
71771;SDS011;59606;52.138;5.424;2024-02-28T06:56:01;25.95;;;11.13;;
71771;SDS011;59606;52.138;5.424;2024-02-28T06:58:29;24.10;;;10.10;;
71771;SDS011;59606;52.138;5.424;2024-02-28T07:00:56;25.30;;;11.77;;
71771;SDS011;59606;52.138;5.424;2024-02-28T07:03:28;19.80;;;10.77;;
71771;SDS011;59606;52.138;5.424;2024-02-28T07:06:04;20.60;;;11.23;;
71771;SDS011;59606;52.138;5.424;2024-02-28T07:08:33;20.48;;;10.57;;
71771;SDS011;59606;52.138;5.424;2024-02-28T07:11:00;24.80;;;12.25;;
71771;SDS011;59606;52.138;5.424;2024-02-28T07:13:32;25.38;;;13.80;;
71771;SDS011;59606;52.138;5.424;2024-02-28T07:16:09;20.25;;;12.07;;
71771;SDS011;59606;52.138;5.424;2024-02-28T07:18:36;21.87;;;11.23;;
71771;SDS011;59606;52.138;5.424;2024-02-28T07:21:03;22.50;;;10.85;;
71771;SDS011;59606;52.138;5.424;2024-02-28T07:23:29;22.23;;;11.13;;
71771;SDS011;59606;52.138;5.424;2024-02-28T07:25:56;22.15;;;10.55;;
71771;SDS011;59606;52.138;5.424;2024-02-28T07:28:44;20.05;;;9.95;;
71771;SDS011;59606;52.138;5.424;2024-02-28T07:31:16;21.77;;;11.23;;
71771;SDS011;59606;52.138;5.424;2024-02-28T07:33:43;21.08;;;11.13;;
71771;SDS011;59606;52.138;5.424;2024-02-28T07:36:09;17.10;;;9.88;;
71771;SDS011;59606;52.138;5.424;2024-02-28T07:38:36;20.08;;;10.70;;
71771;SDS011;59606;52.138;5.424;2024-02-28T07:41:07;20.90;;;11.02;;
71771;SDS011;59606;52.138;5.424;2024-02-28T07:43:33;19.37;;;11.20;;
71771;SDS011;59606;52.138;5.424;2024-02-28T07:46:07;22.67;;;11.05;;
71771;SDS011;59606;52.138;5.424;2024-02-28T07:48:36;18.15;;;10.05;;
71771;SDS011;59606;52.138;5.424;2024-02-28T07:51:06;21.55;;;11.50;;
71771;SDS011;59606;52.138;5.424;2024-02-28T07:53:33;24.88;;;11.80;;
71771;SDS011;59606;52.138;5.424;2024-02-28T07:56:01;19.60;;;10.63;;
71771;SDS011;59606;52.138;5.424;2024-02-28T07:58:29;24.80;;;11.93;;
71771;SDS011;59606;52.138;5.424;2024-02-28T08:00:56;21.67;;;11.25;;
71771;SDS011;59606;52.138;5.424;2024-02-28T08:03:24;19.15;;;9.82;;
71771;SDS011;59606;52.138;5.424;2024-02-28T08:05:51;18.80;;;10.63;;
71771;SDS011;59606;52.138;5.424;2024-02-28T08:08:25;19.90;;;10.63;;
71771;SDS011;59606;52.138;5.424;2024-02-28T08:10:51;24.33;;;11.80;;
71771;SDS011;59606;52.138;5.424;2024-02-28T08:13:28;23.58;;;12.32;;
71771;SDS011;59606;52.138;5.424;2024-02-28T08:15:55;20.00;;;11.07;;
71771;SDS011;59606;52.138;5.424;2024-02-28T08:18:23;24.45;;;12.07;;
71771;SDS011;59606;52.138;5.424;2024-02-28T08:20:51;20.60;;;11.50;;
71771;SDS011;59606;52.138;5.424;2024-02-28T08:23:22;24.17;;;11.73;;
71771;SDS011;59606;52.138;5.424;2024-02-28T08:25:50;25.48;;;11.98;;
71771;SDS011;59606;52.138;5.424;2024-02-28T08:28:31;21.48;;;11.15;;
71771;SDS011;59606;52.138;5.424;2024-02-28T08:30:58;17.95;;;10.07;;
71771;SDS011;59606;52.138;5.424;2024-02-28T08:33:34;21.37;;;11.63;;
71771;SDS011;59606;52.138;5.424;2024-02-28T08:36:03;21.98;;;12.10;;
71771;SDS011;59606;52.138;5.424;2024-02-28T08:38:30;19.75;;;12.07;;
71771;SDS011;59606;52.138;5.424;2024-02-28T08:40:57;23.30;;;12.60;;
71771;SDS011;59606;52.138;5.424;2024-02-28T08:43:31;23.17;;;13.50;;
71771;SDS011;59606;52.138;5.424;2024-02-28T08:46:07;21.43;;;12.33;;
71771;SDS011;59606;52.138;5.424;2024-02-28T08:48:34;25.85;;;12.45;;
71771;SDS011;59606;52.138;5.424;2024-02-28T08:51:00;19.67;;;11.57;;
71771;SDS011;59606;52.138;5.424;2024-02-28T08:53:28;23.63;;;13.13;;
71771;SDS011;59606;52.138;5.424;2024-02-28T08:55:57;21.02;;;12.35;;
71771;SDS011;59606;52.138;5.424;2024-02-28T08:58:29;25.37;;;14.30;;
71771;SDS011;59606;52.138;5.424;2024-02-28T09:00:56;21.65;;;12.15;;
71771;SDS011;59606;52.138;5.424;2024-02-28T09:03:31;23.38;;;13.63;;
71771;SDS011;59606;52.138;5.424;2024-02-28T09:06:00;23.27;;;13.38;;
71771;SDS011;59606;52.138;5.424;2024-02-28T09:08:28;26.17;;;13.50;;
71771;SDS011;59606;52.138;5.424;2024-02-28T09:10:55;21.60;;;13.67;;
71771;SDS011;59606;52.138;5.424;2024-02-28T09:13:22;26.15;;;14.00;;
71771;SDS011;59606;52.138;5.424;2024-02-28T09:15:49;20.55;;;13.60;;
71771;SDS011;59606;52.138;5.424;2024-02-28T09:18:20;24.58;;;14.10;;
71771;SDS011;59606;52.138;5.424;2024-02-28T09:20:48;25.77;;;14.57;;
71771;SDS011;59606;52.138;5.424;2024-02-28T09:23:15;29.40;;;15.80;;
71771;SDS011;59606;52.138;5.424;2024-02-28T09:25:43;24.13;;;14.73;;
71771;SDS011;59606;52.138;5.424;2024-02-28T09:28:11;25.90;;;15.13;;
71771;SDS011;59606;52.138;5.424;2024-02-28T09:30:39;26.10;;;15.07;;
71771;SDS011;59606;52.138;5.424;2024-02-28T09:33:17;27.70;;;14.52;;
71771;SDS011;59606;52.138;5.424;2024-02-28T09:35:46;26.47;;;14.57;;
71771;SDS011;59606;52.138;5.424;2024-02-28T09:38:15;29.67;;;14.90;;
71771;SDS011;59606;52.138;5.424;2024-02-28T09:40:45;24.92;;;15.70;;
71771;SDS011;59606;52.138;5.424;2024-02-28T09:43:18;29.88;;;16.17;;
71771;SDS011;59606;52.138;5.424;2024-02-28T09:45:51;29.13;;;15.18;;
71771;SDS011;59606;52.138;5.424;2024-02-28T09:48:28;32.37;;;14.43;;
71771;SDS011;59606;52.138;5.424;2024-02-28T09:50:56;27.33;;;15.15;;
71771;SDS011;59606;52.138;5.424;2024-02-28T09:53:28;26.65;;;14.45;;
71771;SDS011;59606;52.138;5.424;2024-02-28T09:55:54;28.52;;;14.30;;
71771;SDS011;59606;52.138;5.424;2024-02-28T09:58:22;24.98;;;14.00;;
71771;SDS011;59606;52.138;5.424;2024-02-28T10:00:49;22.23;;;14.40;;
71771;SDS011;59606;52.138;5.424;2024-02-28T10:03:21;23.15;;;13.45;;
71771;SDS011;59606;52.138;5.424;2024-02-28T10:05:49;27.08;;;14.90;;
71771;SDS011;59606;52.138;5.424;2024-02-28T10:08:17;27.33;;;14.18;;
71771;SDS011;59606;52.138;5.424;2024-02-28T10:10:50;23.20;;;13.23;;
71771;SDS011;59606;52.138;5.424;2024-02-28T10:13:22;25.37;;;14.00;;
71771;SDS011;59606;52.138;5.424;2024-02-28T10:15:50;26.25;;;14.32;;
71771;SDS011;59606;52.138;5.424;2024-02-28T10:18:25;25.92;;;14.50;;
71771;SDS011;59606;52.138;5.424;2024-02-28T10:20:52;24.38;;;12.95;;
71771;SDS011;59606;52.138;5.424;2024-02-28T10:23:23;23.85;;;13.23;;
71771;SDS011;59606;52.138;5.424;2024-02-28T10:25:52;24.50;;;13.37;;
71771;SDS011;59606;52.138;5.424;2024-02-28T10:28:23;27.88;;;15.05;;
71771;SDS011;59606;52.138;5.424;2024-02-28T10:30:50;23.00;;;13.10;;
71771;SDS011;59606;52.138;5.424;2024-02-28T10:33:27;25.67;;;14.23;;
71771;SDS011;59606;52.138;5.424;2024-02-28T10:35:57;25.40;;;13.98;;
71771;SDS011;59606;52.138;5.424;2024-02-28T10:38:27;20.90;;;13.47;;
71771;SDS011;59606;52.138;5.424;2024-02-28T10:40:54;23.92;;;13.77;;
71771;SDS011;59606;52.138;5.424;2024-02-28T10:43:24;24.90;;;14.27;;
71771;SDS011;59606;52.138;5.424;2024-02-28T10:45:58;24.70;;;13.55;;
71771;SDS011;59606;52.138;5.424;2024-02-28T10:48:28;25.52;;;12.90;;
71771;SDS011;59606;52.138;5.424;2024-02-28T10:50:56;23.20;;;14.10;;
71771;SDS011;59606;52.138;5.424;2024-02-28T10:53:37;27.15;;;13.93;;
71771;SDS011;59606;52.138;5.424;2024-02-28T10:56:06;28.00;;;14.70;;
71771;SDS011;59606;52.138;5.424;2024-02-28T10:58:37;23.77;;;14.73;;
71771;SDS011;59606;52.138;5.424;2024-02-28T11:01:12;28.17;;;14.50;;
71771;SDS011;59606;52.138;5.424;2024-02-28T11:03:41;27.80;;;14.90;;
71771;SDS011;59606;52.138;5.424;2024-02-28T11:06:21;30.25;;;14.93;;
71771;SDS011;59606;52.138;5.424;2024-02-28T11:08:49;26.75;;;14.80;;
71771;SDS011;59606;52.138;5.424;2024-02-28T11:11:21;25.42;;;15.05;;
71771;SDS011;59606;52.138;5.424;2024-02-28T11:13:54;29.98;;;15.25;;
71771;SDS011;59606;52.138;5.424;2024-02-28T11:16:26;28.73;;;16.03;;
71771;SDS011;59606;52.138;5.424;2024-02-28T11:18:55;31.27;;;16.42;;
71771;SDS011;59606;52.138;5.424;2024-02-28T11:21:25;26.73;;;16.17;;
71771;SDS011;59606;52.138;5.424;2024-02-28T11:23:57;34.28;;;15.23;;
71771;SDS011;59606;52.138;5.424;2024-02-28T11:26:25;26.33;;;14.70;;
71771;SDS011;59606;52.138;5.424;2024-02-28T11:28:54;30.23;;;17.03;;
71771;SDS011;59606;52.138;5.424;2024-02-28T11:31:21;26.02;;;14.95;;
71771;SDS011;59606;52.138;5.424;2024-02-28T11:33:48;27.80;;;14.48;;
71771;SDS011;59606;52.138;5.424;2024-02-28T11:36:15;26.33;;;14.90;;
71771;SDS011;59606;52.138;5.424;2024-02-28T11:38:41;25.85;;;14.32;;
71771;SDS011;59606;52.138;5.424;2024-02-28T11:41:08;26.57;;;13.97;;
71771;SDS011;59606;52.138;5.424;2024-02-28T11:43:34;26.23;;;13.63;;
71771;SDS011;59606;52.138;5.424;2024-02-28T11:46:17;25.48;;;13.45;;
71771;SDS011;59606;52.138;5.424;2024-02-28T11:48:44;25.63;;;13.85;;
71771;SDS011;59606;52.138;5.424;2024-02-28T11:51:12;27.40;;;13.52;;
71771;SDS011;59606;52.138;5.424;2024-02-28T11:53:39;28.13;;;13.67;;
71771;SDS011;59606;52.138;5.424;2024-02-28T11:56:07;26.38;;;12.65;;
71771;SDS011;59606;52.138;5.424;2024-02-28T11:58:34;25.17;;;13.30;;
71771;SDS011;59606;52.138;5.424;2024-02-28T12:01:02;25.45;;;13.65;;
71771;SDS011;59606;52.138;5.424;2024-02-28T12:03:29;30.88;;;14.35;;
71771;SDS011;59606;52.138;5.424;2024-02-28T12:05:55;26.77;;;14.37;;
71771;SDS011;59606;52.138;5.424;2024-02-28T12:08:23;30.98;;;13.75;;
71771;SDS011;59606;52.138;5.424;2024-02-28T12:10:54;32.50;;;15.15;;
71771;SDS011;59606;52.138;5.424;2024-02-28T12:13:22;26.63;;;13.65;;
71771;SDS011;59606;52.138;5.424;2024-02-28T12:15:49;26.73;;;13.82;;
71771;SDS011;59606;52.138;5.424;2024-02-28T12:18:17;27.27;;;14.03;;
71771;SDS011;59606;52.138;5.424;2024-02-28T12:20:44;29.55;;;14.32;;
71771;SDS011;59606;52.138;5.424;2024-02-28T12:23:18;29.77;;;13.13;;
71771;SDS011;59606;52.138;5.424;2024-02-28T12:25:44;28.42;;;12.75;;
71771;SDS011;59606;52.138;5.424;2024-02-28T12:28:14;27.27;;;12.52;;
71771;SDS011;59606;52.138;5.424;2024-02-28T12:30:42;25.80;;;12.23;;
71771;SDS011;59606;52.138;5.424;2024-02-28T12:33:10;24.25;;;13.25;;
71771;SDS011;59606;52.138;5.424;2024-02-28T12:35:38;25.40;;;12.13;;
71771;SDS011;59606;52.138;5.424;2024-02-28T12:38:05;22.10;;;11.52;;
71771;SDS011;59606;52.138;5.424;2024-02-28T12:40:31;21.15;;;11.52;;
71771;SDS011;59606;52.138;5.424;2024-02-28T12:42:59;26.37;;;12.07;;
71771;SDS011;59606;52.138;5.424;2024-02-28T12:45:27;28.85;;;12.07;;
71771;SDS011;59606;52.138;5.424;2024-02-28T12:47:55;23.92;;;11.98;;
71771;SDS011;59606;52.138;5.424;2024-02-28T12:50:24;22.70;;;12.02;;
71771;SDS011;59606;52.138;5.424;2024-02-28T12:52:52;21.58;;;11.48;;
71771;SDS011;59606;52.138;5.424;2024-02-28T12:55:20;25.67;;;12.00;;
71771;SDS011;59606;52.138;5.424;2024-02-28T12:57:50;26.77;;;12.73;;
71771;SDS011;59606;52.138;5.424;2024-02-28T13:00:17;24.52;;;12.13;;
71771;SDS011;59606;52.138;5.424;2024-02-28T13:02:45;27.58;;;12.93;;
71771;SDS011;59606;52.138;5.424;2024-02-28T13:05:13;22.90;;;12.23;;
71771;SDS011;59606;52.138;5.424;2024-02-28T13:07:40;22.50;;;12.10;;
71771;SDS011;59606;52.138;5.424;2024-02-28T13:10:07;22.95;;;11.65;;
71771;SDS011;59606;52.138;5.424;2024-02-28T13:12:38;27.05;;;12.50;;
71771;SDS011;59606;52.138;5.424;2024-02-28T13:15:06;21.83;;;12.93;;
71771;SDS011;59606;52.138;5.424;2024-02-28T13:17:34;25.20;;;12.18;;
71771;SDS011;59606;52.138;5.424;2024-02-28T13:20:01;22.77;;;12.03;;
71771;SDS011;59606;52.138;5.424;2024-02-28T13:22:31;22.50;;;11.65;;
71771;SDS011;59606;52.138;5.424;2024-02-28T13:24:58;21.77;;;12.32;;
71771;SDS011;59606;52.138;5.424;2024-02-28T13:27:24;24.98;;;12.20;;
71771;SDS011;59606;52.138;5.424;2024-02-28T13:29:51;24.55;;;12.98;;
71771;SDS011;59606;52.138;5.424;2024-02-28T13:32:18;25.83;;;12.80;;
71771;SDS011;59606;52.138;5.424;2024-02-28T13:34:44;21.67;;;11.43;;
71771;SDS011;59606;52.138;5.424;2024-02-28T13:37:15;18.85;;;11.88;;
71771;SDS011;59606;52.138;5.424;2024-02-28T13:39:41;22.17;;;12.07;;
71771;SDS011;59606;52.138;5.424;2024-02-28T13:42:08;23.48;;;12.70;;
71771;SDS011;59606;52.138;5.424;2024-02-28T13:44:35;28.93;;;12.73;;
71771;SDS011;59606;52.138;5.424;2024-02-28T13:47:04;23.02;;;11.75;;
71771;SDS011;59606;52.138;5.424;2024-02-28T13:49:31;22.27;;;11.90;;
71771;SDS011;59606;52.138;5.424;2024-02-28T13:51:58;20.73;;;11.30;;
71771;SDS011;59606;52.138;5.424;2024-02-28T13:54:24;21.65;;;12.95;;
71771;SDS011;59606;52.138;5.424;2024-02-28T13:56:51;21.02;;;12.30;;
71771;SDS011;59606;52.138;5.424;2024-02-28T13:59:18;18.63;;;11.90;;
71771;SDS011;59606;52.138;5.424;2024-02-28T14:01:44;25.10;;;14.02;;
71771;SDS011;59606;52.138;5.424;2024-02-28T14:04:11;24.73;;;12.35;;
71771;SDS011;59606;52.138;5.424;2024-02-28T14:06:38;22.52;;;12.25;;
71771;SDS011;59606;52.138;5.424;2024-02-28T14:09:05;24.53;;;12.03;;
71771;SDS011;59606;52.138;5.424;2024-02-28T14:11:31;23.38;;;12.43;;
71771;SDS011;59606;52.138;5.424;2024-02-28T14:13:58;27.77;;;13.20;;
71771;SDS011;59606;52.138;5.424;2024-02-28T14:16:25;23.42;;;11.77;;
71771;SDS011;59606;52.138;5.424;2024-02-28T14:18:51;36.22;;;13.60;;
71771;SDS011;59606;52.138;5.424;2024-02-28T14:21:19;23.30;;;13.40;;
71771;SDS011;59606;52.138;5.424;2024-02-28T14:23:46;26.13;;;12.57;;
71771;SDS011;59606;52.138;5.424;2024-02-28T14:26:12;27.92;;;12.80;;
71771;SDS011;59606;52.138;5.424;2024-02-28T14:28:39;24.33;;;12.32;;